Time;durP1;ratioP1;P1;durP2;ratioP2;P2;SDS_P1;SDS_P2;PMS_P1;PMS_P2;Temp;Humidity;BMP_temperature;BMP_pressure;BME280_temperature;BME280_humidity;BME280_pressure;Samples;Min_cycle;Max_cycle;Signal;HPM_P1;HPM_P2
2022/11/23 00:01:31;;;;;;;0.73;0.30;;;23.20;64.70;;;;;;5069910;28;20372;-80
2022/11/23 00:04:02;;;;;;;2.47;0.47;;;23.10;65.10;;;;;;5071297;28;20496;-80
2022/11/23 00:06:30;;;;;;;1.80;0.60;;;22.80;64.60;;;;;;5060641;28;20462;-81
2022/11/23 00:08:57;;;;;;;1.23;0.40;;;23.10;65.10;;;;;;5071633;28;20858;-80
2022/11/23 00:11:25;;;;;;;0.80;0.40;;;23.60;63.60;;;;;;5073379;28;20381;-79
2022/11/23 00:13:53;;;;;;;1.10;0.40;;;23.80;62.10;;;;;;5072911;28;20382;-80
2022/11/23 00:16:30;;;;;;;0.80;0.40;;;23.80;62.30;;;;;;5073030;28;20401;-80
2022/11/23 00:19:01;;;;;;;1.20;0.45;;;23.60;60.90;;;;;;5073000;28;20409;-79
2022/11/23 00:21:32;;;;;;;1.00;0.30;;;23.40;62.40;;;;;;5073202;28;20370;-80
2022/11/23 00:23:59;;;;;;;2.50;0.50;;;23.50;61.70;;;;;;5073067;28;20731;-80
2022/11/23 00:26:26;;;;;;;1.20;0.40;;;23.50;62.60;;;;;;5072690;28;20398;-80
2022/11/23 00:28:53;;;;;;;1.05;0.50;;;23.70;62.10;;;;;;5072881;28;20382;-79
2022/11/23 00:31:29;;;;;;;1.02;0.40;;;24.40;60.60;;;;;;5072410;28;20435;-81
2022/11/23 00:33:57;;;;;;;0.47;0.40;;;24.90;59.30;;;;;;5072556;28;20386;-79
2022/11/23 00:36:26;;;;;;;1.52;0.40;;;25.30;58.30;;;;;;5069435;28;20757;-80
2022/11/23 00:38:53;;;;;;;0.60;0.30;;;25.50;58.20;;;;;;5061849;28;20788;-79
2022/11/23 00:41:26;;;;;;;1.85;0.55;;;24.90;57.20;;;;;;5072407;28;20384;-81
2022/11/23 00:43:53;;;;;;;0.82;0.35;;;24.30;59.50;;;;;;5072512;28;20394;-79
2022/11/23 00:46:25;;;;;;;1.73;0.53;;;24.50;60.10;;;;;;5072332;28;20449;-80
2022/11/23 00:48:54;;;;;;;0.85;0.40;;;24.60;59.30;;;;;;5072527;28;20440;-81
2022/11/23 00:51:25;;;;;;;1.70;0.30;;;24.40;59.70;;;;;;5072423;28;20371;-80
2022/11/23 00:53:52;;;;;;;1.15;0.40;;;24.30;59.50;;;;;;5045297;28;20373;-80
2022/11/23 00:56:20;;;;;;;0.88;0.45;;;24.30;59.00;;;;;;5072011;28;20881;-81
2022/11/23 00:58:51;;;;;;;2.33;0.50;;;24.20;59.20;;;;;;5072254;28;20464;-80
2022/11/23 01:01:21;;;;;;;1.45;0.40;;;24.40;58.70;;;;;;5072272;28;20427;-80
2022/11/23 01:03:50;;;;;;;1.52;0.50;;;24.90;58.90;;;;;;5072021;28;20427;-80
2022/11/23 01:06:24;;;;;;;4.10;0.52;;;25.60;57.10;;;;;;5072028;28;20381;-81
2022/11/23 01:08:53;;;;;;;9.60;0.90;;;26.00;55.70;;;;;;5071877;28;20363;-79
2022/11/23 01:11:21;;;;;;;2.33;0.55;;;26.20;55.50;;;;;;5072002;28;20378;-80
2022/11/23 01:13:48;;;;;;;1.17;0.43;;;26.40;54.50;;;;;;5071902;28;20463;-81
2022/11/23 01:16:23;;;;;;;1.70;0.30;;;26.60;54.50;;;;;;5070542;28;20406;-80
2022/11/23 01:18:58;;;;;;;2.25;0.50;;;27.00;54.30;;;;;;5071921;28;20402;-80
2022/11/23 01:21:26;;;;;;;1.70;0.38;;;26.70;54.10;;;;;;5071776;28;20463;-80
2022/11/23 01:23:54;;;;;;;1.83;0.40;;;26.10;54.40;;;;;;5071751;28;20406;-81
2022/11/23 01:26:22;;;;;;;0.90;0.40;;;25.60;57.00;;;;;;5071605;28;20378;-79
2022/11/23 01:28:49;;;;;;;0.95;0.38;;;25.80;56.50;;;;;;5071642;28;20423;-80
2022/11/23 01:31:21;;;;;;;1.23;0.40;;;25.80;56.40;;;;;;5071422;28;20726;-79
2022/11/23 01:33:56;;;;;;;0.98;0.38;;;26.50;54.30;;;;;;5073207;28;20431;-80
2022/11/23 01:36:29;;;;;;;1.70;0.38;;;27.00;55.60;;;;;;5072902;28;20463;-80
2022/11/23 01:38:58;;;;;;;1.13;0.32;;;27.30;52.80;;;;;;5071474;28;20382;-82
2022/11/23 01:41:31;;;;;;;2.05;0.40;;;27.40;52.70;;;;;;5071162;28;20397;-83
2022/11/23 01:43:58;;;;;;;1.40;0.50;;;27.20;53.30;;;;;;5071354;28;20437;-82
2022/11/23 01:46:25;;;;;;;0.47;0.30;;;27.20;52.90;;;;;;5070837;28;20988;-80
2022/11/23 01:49:00;;;;;;;1.42;0.40;;;27.10;54.50;;;;;;5071323;28;20754;-78
2022/11/23 01:51:29;;;;;;;1.07;0.47;;;27.60;52.20;;;;;;5070647;28;20400;-80
2022/11/23 01:54:03;;;;;;;1.48;0.40;;;27.70;53.00;;;;;;5058247;28;20382;-80
2022/11/23 01:56:36;;;;;;;2.35;0.40;;;28.30;51.30;;;;;;5070903;28;20953;-80
2022/11/23 01:59:07;;;;;;;5.30;0.70;;;29.20;50.30;;;;;;5071133;28;20424;-80
2022/11/23 02:01:34;;;;;;;4.22;0.77;;;29.90;49.20;;;;;;5071160;28;20393;-81
2022/11/23 02:04:02;;;;;;;3.00;0.60;;;29.50;48.70;;;;;;5070923;28;20370;-81
2022/11/23 02:06:30;;;;;;;6.22;0.40;;;29.60;50.00;;;;;;5070866;28;20390;-81
2022/11/23 02:08:58;;;;;;;2.78;0.60;;;30.40;49.00;;;;;;5070877;28;20374;-82
2022/11/23 02:11:25;;;;;;;3.72;0.60;;;30.50;47.80;;;;;;5070991;28;21219;-82
2022/11/23 02:13:52;;;;;;;5.63;0.57;;;30.60;49.50;;;;;;5070706;28;20730;-82
2022/11/23 02:16:19;;;;;;;3.28;0.60;;;31.40;47.70;;;;;;5070574;28;20471;-81
2022/11/23 02:18:49;;;;;;;1.55;0.50;;;31.80;47.50;;;;;;5070693;28;20435;-82
2022/11/23 02:21:16;;;;;;;1.95;0.50;;;32.10;46.70;;;;;;5070626;28;20405;-81
2022/11/23 02:24:11;;;;;;;1.77;0.50;;;31.80;46.30;;;;;;5070618;28;20386;-81
2022/11/23 02:26:38;;;;;;;1.77;0.45;;;32.30;45.00;;;;;;5070336;28;20350;-81
2022/11/23 02:29:09;;;;;;;1.20;0.30;;;32.60;45.10;;;;;;5070385;28;20386;-80
2022/11/23 02:31:36;;;;;;;0.93;0.40;;;31.80;45.20;;;;;;5070283;28;20362;-80
2022/11/23 02:34:03;;;;;;;2.00;0.30;;;30.90;45.50;;;;;;5070389;28;20389;-81
2022/11/23 02:36:36;;;;;;;1.98;0.40;;;30.40;46.70;;;;;;5070176;28;20881;-81
2022/11/23 02:39:35;;;;;;;0.68;0.30;;;30.00;47.10;;;;;;5070586;28;20376;-81
2022/11/23 02:42:03;;;;;;;1.00;0.30;;;30.30;47.90;;;;;;5070412;28;20374;-80
2022/11/23 02:44:45;;;;;;;1.05;0.40;;;30.20;47.70;;;;;;5070236;28;20483;-80
2022/11/23 02:47:12;;;;;;;0.77;0.35;;;30.60;47.00;;;;;;5045338;28;20453;-81
2022/11/23 02:49:41;;;;;;;0.93;0.30;;;31.40;46.10;;;;;;5070426;28;20370;-80
2022/11/23 02:52:08;;;;;;;1.25;0.40;;;31.70;45.50;;;;;;5070276;28;20374;-81
2022/11/23 02:54:36;;;;;;;1.25;0.30;;;31.90;44.40;;;;;;5070034;28;20386;-81
2022/11/23 02:57:04;;;;;;;0.73;0.35;;;31.80;46.10;;;;;;5070030;28;20406;-80
2022/11/23 02:59:32;;;;;;;1.88;0.40;;;31.80;44.60;;;;;;5059437;28;20393;-81
2022/11/23 03:02:01;;;;;;;1.55;0.47;;;31.70;44.80;;;;;;5067256;28;20854;-81
2022/11/23 03:04:28;;;;;;;1.85;0.40;;;32.60;43.90;;;;;;5052037;28;20385;-81
2022/11/23 03:06:55;;;;;;;2.17;0.50;;;32.40;43.60;;;;;;5070104;28;20393;-81
2022/11/23 03:09:24;;;;;;;1.35;0.40;;;31.80;45.30;;;;;;5069933;28;20378;-82
2022/11/23 03:11:53;;;;;;;2.47;0.30;;;31.50;44.80;;;;;;5069808;28;20386;-80
2022/11/23 03:14:20;;;;;;;1.47;0.43;;;30.60;45.50;;;;;;5069789;28;20373;-80
2022/11/23 03:16:47;;;;;;;3.50;0.60;;;30.80;45.50;;;;;;5069844;28;20394;-80
2022/11/23 03:19:14;;;;;;;5.38;0.70;;;30.50;45.00;;;;;;5069937;28;20374;-80
2022/11/23 03:21:41;;;;;;;2.95;0.40;;;30.40;45.80;;;;;;5069853;28;20805;-81
2022/11/23 03:24:08;;;;;;;2.33;0.55;;;31.20;46.00;;;;;;5069814;28;20471;-81
2022/11/23 03:26:35;;;;;;;4.60;0.82;;;31.80;45.30;;;;;;5069735;28;20382;-81
2022/11/23 03:29:02;;;;;;;0.50;0.30;;;32.90;43.70;;;;;;5069977;28;20378;-81
2022/11/23 03:31:29;;;;;;;1.27;0.30;;;33.00;42.70;;;;;;5069658;28;20388;-81
2022/11/23 03:33:56;;;;;;;1.20;0.43;;;32.70;42.90;;;;;;5069780;28;20454;-81
2022/11/23 03:36:23;;;;;;;0.93;0.40;;;31.70;43.30;;;;;;5069511;28;20397;-81
2022/11/23 03:38:50;;;;;;;0.52;0.38;;;31.70;44.00;;;;;;5071391;28;20440;-81
2022/11/23 03:41:17;;;;;;;0.83;0.30;;;31.30;44.10;;;;;;5073563;28;20374;-81
2022/11/23 03:43:44;;;;;;;2.13;0.40;;;30.90;44.00;;;;;;5073990;28;20394;-81
2022/11/23 03:46:11;;;;;;;1.70;0.40;;;30.80;44.50;;;;;;5073599;28;20370;-79
2022/11/23 03:48:38;;;;;;;1.30;0.47;;;30.70;44.60;;;;;;5073541;28;20456;-81
2022/11/23 03:51:05;;;;;;;2.30;0.52;;;30.50;44.40;;;;;;5073577;28;20374;-81
2022/11/23 03:53:32;;;;;;;0.93;0.33;;;30.90;47.30;;;;;;5059219;28;20374;-81
2022/11/23 03:55:59;;;;;;;0.50;0.32;;;32.10;43.80;;;;;;5073248;28;20448;-81
2022/11/23 03:58:26;;;;;;;0.90;0.30;;;32.60;43.50;;;;;;5073331;28;20427;-82
2022/11/23 04:00:54;;;;;;;0.50;0.30;;;33.10;42.70;;;;;;5073091;28;20876;-81
2022/11/23 04:03:21;;;;;;;0.55;0.22;;;33.50;42.40;;;;;;5073589;28;20381;-81
2022/11/23 04:05:48;;;;;;;0.50;0.30;;;33.60;42.10;;;;;;5073219;28;20377;-81
2022/11/23 04:08:16;;;;;;;1.20;0.35;;;33.50;40.00;;;;;;5073285;28;20464;-81
2022/11/23 04:10:43;;;;;;;1.90;0.38;;;33.10;41.70;;;;;;5073363;28;20733;-82
2022/11/23 04:13:10;;;;;;;1.38;0.32;;;33.00;41.40;;;;;;5073276;28;20846;-81
2022/11/23 04:15:37;;;;;;;1.50;0.40;;;33.20;41.80;;;;;;5072595;28;20873;-81
2022/11/23 04:18:04;;;;;;;1.20;0.40;;;32.60;41.40;;;;;;5073158;28;20857;-80
2022/11/23 04:20:31;;;;;;;2.22;0.30;;;31.90;41.80;;;;;;5072943;28;20374;-81
2022/11/23 04:22:58;;;;;;;4.00;0.40;;;31.80;42.30;;;;;;5072697;28;20465;-80
2022/11/23 04:25:25;;;;;;;0.75;0.50;;;32.10;43.40;;;;;;5073066;28;20404;-82
2022/11/23 04:27:52;;;;;;;2.17;0.30;;;32.70;41.10;;;;;;5072755;28;20411;-82
2022/11/23 04:30:19;;;;;;;0.85;0.30;;;32.90;40.20;;;;;;5072873;28;20370;-81
2022/11/23 04:32:46;;;;;;;1.00;0.30;;;32.70;40.00;;;;;;5072740;28;20760;-81
2022/11/23 04:35:13;;;;;;;1.40;0.32;;;32.30;40.40;;;;;;5072636;28;20424;-82
2022/11/23 04:37:40;;;;;;;1.25;0.40;;;32.80;40.70;;;;;;5072583;28;20405;-81
2022/11/23 04:40:07;;;;;;;1.40;0.40;;;33.40;39.20;;;;;;5063994;28;20389;-81
2022/11/23 04:42:35;;;;;;;1.40;0.30;;;33.30;40.60;;;;;;5062905;28;20479;-83
2022/11/23 04:45:02;;;;;;;0.52;0.30;;;33.40;39.80;;;;;;5060073;28;20415;-81
2022/11/23 04:47:29;;;;;;;3.38;0.30;;;33.00;39.60;;;;;;5062424;28;20393;-82
2022/11/23 04:49:56;;;;;;;1.85;0.30;;;32.70;39.50;;;;;;5056902;28;20380;-81
2022/11/23 04:52:23;;;;;;;1.00;0.40;;;32.20;39.70;;;;;;5052868;28;20388;-82
2022/11/23 04:54:50;;;;;;;0.47;0.38;;;31.80;40.20;;;;;;5051597;28;20390;-81
2022/11/23 04:57:17;;;;;;;1.73;0.50;;;32.30;40.80;;;;;;5061128;28;20418;-78
2022/11/23 04:59:44;;;;;;;1.37;0.40;;;32.80;40.30;;;;;;5045884;28;20388;-81
2022/11/23 05:02:11;;;;;;;0.30;0.30;;;32.40;39.80;;;;;;5050985;28;20392;-81
2022/11/23 05:04:38;;;;;;;0.68;0.30;;;31.90;39.60;;;;;;5062953;28;20386;-82
2022/11/23 05:07:05;;;;;;;1.73;0.40;;;31.70;40.60;;;;;;5055876;28;20461;-80
2022/11/23 05:09:32;;;;;;;0.52;0.30;;;31.50;40.70;;;;;;5053580;28;20495;-81
2022/11/23 05:11:59;;;;;;;0.32;0.30;;;31.40;41.10;;;;;;5070851;28;20409;-82
2022/11/23 05:14:26;;;;;;;0.55;0.30;;;31.70;40.40;;;;;;5065177;28;20425;-85
2022/11/23 05:16:53;;;;;;;1.83;0.30;;;32.40;41.20;;;;;;5069389;28;20775;-82
2022/11/23 05:19:20;;;;;;;1.00;0.50;;;32.50;40.30;;;;;;5074011;28;20385;-82
2022/11/23 05:21:47;;;;;;;1.50;0.50;;;32.70;39.90;;;;;;5065354;28;20466;-80
2022/11/23 05:24:14;;;;;;;0.55;0.40;;;32.10;39.20;;;;;;5065489;28;20374;-80
2022/11/23 05:26:41;;;;;;;2.20;0.33;;;31.60;40.20;;;;;;5051741;28;20399;-80
2022/11/23 05:29:07;;;;;;;0.45;0.20;;;31.30;40.00;;;;;;5061590;28;20395;-81
2022/11/23 05:31:34;;;;;;;1.58;0.30;;;31.50;40.80;;;;;;5056948;28;20431;-78
2022/11/23 05:34:03;;;;;;;0.70;0.32;;;31.40;41.30;;;;;;5060007;28;20389;-81
2022/11/23 05:36:30;;;;;;;0.65;0.40;;;31.30;40.90;;;;;;5061986;28;20434;-81
2022/11/23 05:39:00;;;;;;;0.85;0.25;;;31.50;41.00;;;;;;5052705;28;20378;-86
2022/11/23 05:41:26;;;;;;;0.57;0.30;;;31.30;40.90;;;;;;5051110;28;20492;-80
2022/11/23 05:43:53;;;;;;;0.80;0.20;;;31.10;41.20;;;;;;5051744;28;20445;-82
2022/11/23 05:46:21;;;;;;;0.50;0.30;;;31.00;40.70;;;;;;5054365;28;20391;-89
2022/11/23 05:48:48;;;;;;;0.77;0.30;;;31.10;41.20;;;;;;5057412;28;20423;-81
2022/11/23 05:51:15;;;;;;;1.05;0.30;;;31.30;41.90;;;;;;5062492;28;20384;-82
2022/11/23 05:53:42;;;;;;;0.55;0.30;;;31.40;41.30;;;;;;5047161;28;20436;-82
2022/11/23 05:56:09;;;;;;;1.00;0.30;;;31.30;40.50;;;;;;5065892;28;21062;-80
2022/11/23 05:58:36;;;;;;;0.88;0.40;;;31.30;41.70;;;;;;5058761;28;20884;-81
2022/11/23 06:01:03;;;;;;;0.50;0.23;;;31.20;40.90;;;;;;5052436;28;20379;-81
2022/11/23 06:03:32;;;;;;;0.60;0.30;;;31.10;42.20;;;;;;5044311;28;20725;-82
2022/11/23 06:06:02;;;;;;;1.38;0.38;;;31.30;41.20;;;;;;5063869;28;20410;-80
2022/11/23 06:08:29;;;;;;;0.80;0.30;;;31.40;41.70;;;;;;5051337;28;20387;-82
2022/11/23 06:10:59;;;;;;;1.55;0.30;;;31.70;41.10;;;;;;5049738;28;20385;-82
2022/11/23 06:13:26;;;;;;;0.50;0.20;;;30.90;40.50;;;;;;5050672;28;20368;-81
2022/11/23 06:15:53;;;;;;;0.60;0.28;;;30.50;41.10;;;;;;5050756;28;20387;-86
2022/11/23 06:18:20;;;;;;;0.70;0.25;;;29.90;41.50;;;;;;5047123;28;20474;-81
2022/11/23 06:20:47;;;;;;;1.55;0.20;;;29.60;41.70;;;;;;5055161;28;20419;-82
2022/11/23 06:23:14;;;;;;;1.42;0.22;;;30.00;42.20;;;;;;5042975;28;20427;-80
2022/11/23 06:25:41;;;;;;;0.40;0.22;;;29.90;42.30;;;;;;5057976;28;20735;-88
2022/11/23 06:28:08;;;;;;;0.63;0.23;;;30.10;42.20;;;;;;5056903;28;20382;-82
2022/11/23 06:30:35;;;;;;;0.70;0.30;;;30.40;41.50;;;;;;5070861;28;20927;-83
2022/11/23 06:33:03;;;;;;;1.50;0.30;;;30.40;41.60;;;;;;5053871;28;21057;-87
2022/11/23 06:35:30;;;;;;;0.52;0.30;;;30.30;41.90;;;;;;5050620;28;20375;-84
2022/11/23 06:37:58;;;;;;;1.40;0.32;;;30.10;42.20;;;;;;5032660;28;20456;-84
2022/11/23 06:40:25;;;;;;;1.48;0.35;;;30.10;42.20;;;;;;5049970;28;20474;-80
2022/11/23 06:42:56;;;;;;;0.80;0.30;;;30.10;42.20;;;;;;5051144;28;20863;-83
2022/11/23 06:45:23;;;;;;;0.20;0.20;;;29.80;42.50;;;;;;5048906;28;20391;-82
2022/11/23 06:47:53;;;;;;;1.52;0.20;;;29.70;42.10;;;;;;5050561;28;20398;-82
2022/11/23 06:50:20;;;;;;;2.97;0.40;;;29.40;41.40;;;;;;5053891;28;20548;-82
2022/11/23 06:52:47;;;;;;;1.00;0.30;;;29.30;41.70;;;;;;5050839;28;20892;-86
2022/11/23 06:55:14;;;;;;;0.38;0.30;;;29.30;42.50;;;;;;5049355;28;20387;-83
2022/11/23 06:57:41;;;;;;;0.98;0.30;;;29.40;42.40;;;;;;5053084;28;21084;-84
2022/11/23 07:00:10;;;;;;;1.63;0.30;;;29.50;42.20;;;;;;5049705;28;20388;-83
2022/11/23 07:02:37;;;;;;;0.52;0.25;;;29.30;42.40;;;;;;5051744;28;20395;-83
2022/11/23 07:05:04;;;;;;;0.20;0.20;;;28.90;42.80;;;;;;5049830;28;20378;-81
2022/11/23 07:07:31;;;;;;;0.70;0.28;;;28.90;43.20;;;;;;5051013;28;20391;-82
2022/11/23 07:09:58;;;;;;;1.77;0.30;;;28.90;43.40;;;;;;5050885;28;20383;-82
2022/11/23 07:12:25;;;;;;;1.20;0.30;;;29.20;43.70;;;;;;5032573;28;20420;-82
2022/11/23 07:14:52;;;;;;;1.00;0.30;;;29.40;42.70;;;;;;5048977;28;20392;-85
2022/11/23 07:17:19;;;;;;;0.20;0.20;;;29.30;43.00;;;;;;5058737;28;20887;-85
2022/11/23 07:19:46;;;;;;;0.60;0.22;;;29.20;42.60;;;;;;5050232;28;20367;-82
2022/11/23 07:22:14;;;;;;;0.40;0.30;;;29.30;42.80;;;;;;5055713;28;20721;-82
2022/11/23 07:24:41;;;;;;;0.95;0.38;;;29.20;42.60;;;;;;5052993;28;20386;-83
2022/11/23 07:27:08;;;;;;;0.65;0.38;;;29.00;43.10;;;;;;5045388;28;20388;-82
2022/11/23 07:29:35;;;;;;;0.63;0.20;;;29.10;43.30;;;;;;5066065;28;20374;-83
2022/11/23 07:32:02;;;;;;;0.68;0.22;;;28.90;42.80;;;;;;5063326;28;20390;-84
2022/11/23 07:34:29;;;;;;;0.32;0.22;;;28.80;43.40;;;;;;5055282;28;20371;-83
2022/11/23 07:36:56;;;;;;;0.60;0.40;;;28.80;43.80;;;;;;5069180;28;20531;-83
2022/11/23 07:39:23;;;;;;;0.45;0.40;;;28.80;43.90;;;;;;5067467;28;20386;-81
2022/11/23 07:41:50;;;;;;;1.60;0.32;;;28.70;43.90;;;;;;5055501;28;20407;-86
2022/11/23 07:44:17;;;;;;;0.70;0.30;;;28.50;43.90;;;;;;5069953;28;20445;-85
2022/11/23 07:46:44;;;;;;;0.70;0.25;;;28.40;44.10;;;;;;5068863;28;20515;-81
2022/11/23 07:49:11;;;;;;;0.60;0.20;;;28.30;44.70;;;;;;5069541;28;20382;-84
2022/11/23 07:51:38;;;;;;;0.50;0.30;;;28.10;44.50;;;;;;5070601;28;20382;-83
2022/11/23 07:54:05;;;;;;;1.25;0.43;;;27.70;45.30;;;;;;5053547;28;20388;-85
2022/11/23 07:56:32;;;;;;;0.97;0.30;;;27.30;45.70;;;;;;5055923;28;20834;-87
2022/11/23 07:58:59;;;;;;;0.60;0.40;;;27.00;46.30;;;;;;5069940;28;20435;-85
2022/11/23 08:01:26;;;;;;;1.10;0.30;;;26.50;46.40;;;;;;5062015;28;20380;-80
2022/11/23 08:03:53;;;;;;;0.40;0.30;;;26.10;46.90;;;;;;5042170;28;20414;-81
2022/11/23 08:06:20;;;;;;;1.10;0.35;;;25.90;47.50;;;;;;5068873;28;20377;-81
2022/11/23 08:08:47;;;;;;;0.32;0.20;;;25.80;48.00;;;;;;5066514;28;20397;-81
2022/11/23 08:11:16;;;;;;;1.33;0.40;;;25.70;48.10;;;;;;5067427;28;20374;-81
2022/11/23 08:13:43;;;;;;;0.68;0.30;;;25.60;48.60;;;;;;5064919;28;20370;-81
2022/11/23 08:16:10;;;;;;;0.80;0.40;;;25.60;48.90;;;;;;5061290;28;20396;-81
2022/11/23 08:18:37;;;;;;;0.50;0.40;;;25.40;48.20;;;;;;5062804;28;20461;-80
2022/11/23 08:21:04;;;;;;;1.20;0.40;;;25.10;48.80;;;;;;5062111;28;20387;-79
2022/11/23 08:23:31;;;;;;;1.38;0.40;;;25.20;49.00;;;;;;5069676;28;20378;-83
2022/11/23 08:25:58;;;;;;;1.17;0.30;;;25.10;48.90;;;;;;5054295;28;20387;-81
2022/11/23 08:28:25;;;;;;;2.10;0.30;;;25.00;49.50;;;;;;5069636;28;20386;-82
2022/11/23 08:30:52;;;;;;;0.65;0.30;;;24.80;50.00;;;;;;5057733;28;20734;-82
2022/11/23 08:33:19;;;;;;;0.50;0.40;;;24.60;50.70;;;;;;5067216;28;20461;-81
2022/11/23 08:35:46;;;;;;;0.80;0.40;;;24.50;50.70;;;;;;5045575;28;20376;-81
2022/11/23 08:38:13;;;;;;;1.02;0.30;;;24.40;51.50;;;;;;5057674;28;20384;-80
2022/11/23 08:40:40;;;;;;;0.77;0.40;;;24.20;51.20;;;;;;5072666;28;20976;-81
2022/11/23 08:43:07;;;;;;;0.97;0.40;;;24.10;52.20;;;;;;5069387;28;20390;-81
2022/11/23 08:45:34;;;;;;;0.30;0.30;;;23.90;52.20;;;;;;5069244;28;20397;-81
2022/11/23 08:48:02;;;;;;;2.10;0.30;;;23.80;52.60;;;;;;5072881;28;20385;-80
2022/11/23 08:50:29;;;;;;;1.10;0.40;;;23.70;53.00;;;;;;5072405;28;20377;-81
2022/11/23 08:52:58;;;;;;;0.80;0.40;;;23.60;53.90;;;;;;5066197;28;20385;-81
2022/11/23 08:55:26;;;;;;;1.30;0.50;;;23.40;54.10;;;;;;5072178;28;20624;-80
2022/11/23 08:57:59;;;;;;;0.80;0.30;;;23.40;54.40;;;;;;5066808;28;20406;-80
2022/11/23 09:00:27;;;;;;;1.10;0.30;;;23.20;55.40;;;;;;5064349;28;20417;-82
2022/11/23 09:02:57;;;;;;;0.45;0.30;;;23.20;54.60;;;;;;5072669;28;20378;-81
2022/11/23 09:05:25;;;;;;;0.75;0.38;;;23.20;55.00;;;;;;5058247;28;20410;-81
2022/11/23 09:07:52;;;;;;;0.90;0.35;;;23.00;55.30;;;;;;5064695;28;20478;-82
2022/11/23 09:10:20;;;;;;;1.02;0.40;;;23.00;56.40;;;;;;5072073;28;20453;-82
2022/11/23 09:12:48;;;;;;;0.50;0.40;;;22.90;55.70;;;;;;5063201;28;20382;-82
2022/11/23 09:15:15;;;;;;;0.60;0.40;;;22.80;56.80;;;;;;5053186;28;20378;-80
2022/11/23 09:17:42;;;;;;;1.40;0.50;;;22.70;56.80;;;;;;5060572;28;20407;-82
2022/11/23 09:20:10;;;;;;;1.37;0.50;;;22.60;56.90;;;;;;5069913;28;20374;-83
2022/11/23 09:22:37;;;;;;;1.20;0.40;;;22.50;57.20;;;;;;5070739;28;20443;-83
2022/11/23 09:25:05;;;;;;;2.03;0.40;;;22.50;57.10;;;;;;5055846;28;20525;-81
2022/11/23 09:27:32;;;;;;;0.60;0.40;;;22.50;57.20;;;;;;5063066;28;20838;-80
2022/11/23 09:29:59;;;;;;;1.77;0.50;;;22.50;57.20;;;;;;5066783;28;20483;-81
2022/11/23 09:32:27;;;;;;;0.50;0.40;;;22.40;57.20;;;;;;5072014;28;20703;-82
2022/11/23 09:34:54;;;;;;;0.52;0.40;;;22.30;58.10;;;;;;5071625;28;20366;-81
2022/11/23 09:37:21;;;;;;;1.90;0.50;;;22.20;57.80;;;;;;5070450;28;20489;-82
2022/11/23 09:39:48;;;;;;;6.90;0.70;;;22.10;57.80;;;;;;5068008;28;20378;-82
2022/11/23 09:42:50;;;;;;;1.40;0.82;;;22.10;59.00;;;;;;5063166;28;20397;-82
2022/11/23 09:45:28;;;;;;;1.40;0.60;;;22.00;59.30;;;;;;4976564;28;20397;-80
2022/11/23 09:48:16;;;;;;;1.80;0.50;;;21.90;58.60;;;;;;4973091;28;20399;-81
2022/11/23 09:50:47;;;;;;;0.77;0.40;;;21.90;59.40;;;;;;4971067;28;20747;-81
2022/11/23 09:53:32;;;;;;;1.00;0.30;;;21.80;59.30;;;;;;4978947;28;20441;-80
2022/11/23 09:55:59;;;;;;;1.00;0.40;;;21.70;59.50;;;;;;4978487;28;20438;-80
2022/11/23 09:58:32;;;;;;;0.70;0.35;;;21.70;59.70;;;;;;4983048;28;20872;-81
2022/11/23 10:01:13;;;;;;;1.10;0.30;;;21.60;59.30;;;;;;4980908;28;20383;-81
2022/11/23 10:03:42;;;;;;;1.08;0.30;;;21.60;59.50;;;;;;4983300;28;20397;-81
2022/11/23 10:06:12;;;;;;;0.68;0.30;;;21.50;59.90;;;;;;4976491;28;20867;-81
2022/11/23 10:08:51;;;;;;;0.38;0.30;;;21.50;59.90;;;;;;4972794;28;20438;-81
2022/11/23 10:11:21;;;;;;;0.40;0.30;;;21.40;60.00;;;;;;4984476;28;20394;-81
2022/11/23 10:14:20;;;;;;;0.85;0.40;;;21.40;60.30;;;;;;4983702;28;20405;-82
2022/11/23 10:17:27;;;;;;;0.97;0.33;;;21.30;60.30;;;;;;4983412;28;20433;-80
2022/11/23 10:20:37;;;;;;;2.60;0.73;;;21.30;60.90;;;;;;4986362;28;20780;-81
2022/11/23 10:23:32;;;;;;;0.90;0.52;;;21.30;60.80;;;;;;5060124;28;20382;-81
2022/11/23 10:25:59;;;;;;;1.43;0.50;;;21.20;61.10;;;;;;5018755;28;20870;-81
2022/11/23 10:28:31;;;;;;;0.50;0.40;;;21.10;61.30;;;;;;5024650;28;20389;-81
2022/11/23 10:31:13;;;;;;;0.73;0.50;;;21.10;61.60;;;;;;5026913;28;20476;-81
2022/11/23 10:34:13;;;;;;;1.30;0.70;;;21.00;61.60;;;;;;5013913;28;20403;-81
2022/11/23 10:36:41;;;;;;;1.70;0.70;;;21.00;62.00;;;;;;5026140;28;20415;-81
2022/11/23 10:39:31;;;;;;;2.60;0.60;;;20.90;62.20;;;;;;5027966;28;20464;-82
2022/11/23 10:42:08;;;;;;;0.63;0.60;;;20.80;62.50;;;;;;5014187;28;20861;-80
2022/11/23 10:44:37;;;;;;;2.25;0.50;;;20.70;62.80;;;;;;5027489;28;20389;-81
2022/11/23 10:47:05;;;;;;;2.00;0.60;;;20.70;63.10;;;;;;5026566;28;20953;-81
2022/11/23 10:49:34;;;;;;;1.45;0.95;;;20.70;63.10;;;;;;5015143;28;20387;-79
2022/11/23 10:52:28;;;;;;;2.25;0.68;;;20.60;63.20;;;;;;5023905;28;20467;-82
2022/11/23 10:54:57;;;;;;;2.85;0.60;;;20.60;63.40;;;;;;5021360;28;20392;-79
2022/11/23 10:57:44;;;;;;;1.08;0.60;;;20.60;63.20;;;;;;4900597;28;3190514;-80
2022/11/23 11:00:15;;;;;;;1.80;0.77;;;20.50;63.40;;;;;;4994132;28;20387;-81
2022/11/23 11:02:48;;;;;;;2.08;0.65;;;20.50;63.60;;;;;;5034817;28;20476;-81
2022/11/23 11:05:24;;;;;;;1.27;0.60;;;20.40;64.10;;;;;;5070318;28;20385;-80
2022/11/23 11:07:53;;;;;;;2.63;0.70;;;20.30;64.50;;;;;;5068601;28;20400;-81
2022/11/23 11:10:33;;;;;;;3.50;0.60;;;20.20;65.00;;;;;;5070289;28;20493;-81
2022/11/23 11:13:01;;;;;;;1.70;0.68;;;20.10;65.50;;;;;;5066136;28;20481;-80
2022/11/23 11:15:28;;;;;;;1.42;0.52;;;20.10;65.90;;;;;;5066191;28;20765;-81
2022/11/23 11:17:57;;;;;;;1.05;0.50;;;20.00;65.80;;;;;;5040322;28;20825;-81
2022/11/23 11:20:32;;;;;;;1.27;0.50;;;19.90;66.10;;;;;;5046924;28;20453;-81
2022/11/23 11:23:21;;;;;;;0.88;0.40;;;19.80;66.00;;;;;;5069804;28;20382;-81
2022/11/23 11:26:04;;;;;;;1.33;0.40;;;19.80;66.50;;;;;;5050442;28;20373;-82
2022/11/23 11:28:39;;;;;;;2.38;0.50;;;19.70;66.40;;;;;;5068580;28;20927;-81
2022/11/23 11:31:55;;;;;;;2.08;0.95;;;19.60;67.00;;;;;;5059872;28;20372;-81
2022/11/23 11:34:41;;;;;;;3.05;1.25;;;19.60;67.30;;;;;;5052233;28;20511;-81
2022/11/23 11:37:32;;;;;;;2.15;1.30;;;19.50;67.40;;;;;;5043820;28;20406;-81
2022/11/23 11:40:10;;;;;;;2.20;1.00;;;19.50;67.70;;;;;;5051306;28;20399;-81
2022/11/23 11:42:57;;;;;;;2.35;0.95;;;19.50;67.70;;;;;;5060692;28;20954;-82
2022/11/23 11:45:33;;;;;;;1.85;0.90;;;19.50;67.50;;;;;;5055033;28;20386;-81
2022/11/23 11:48:04;;;;;;;2.13;0.90;;;19.50;67.60;;;;;;5041642;28;20459;-82
2022/11/23 11:50:40;;;;;;;1.95;0.95;;;19.40;67.90;;;;;;5046280;28;20398;-81
2022/11/23 11:53:13;;;;;;;3.00;1.08;;;19.30;68.20;;;;;;5054074;28;20383;-81
2022/11/23 11:56:13;;;;;;;2.90;0.90;;;19.20;68.70;;;;;;5056007;28;20813;-82
2022/11/23 11:58:49;;;;;;;1.67;0.70;;;19.20;69.20;;;;;;5055183;28;20898;-82
2022/11/23 12:02:00;;;;;;;1.10;0.70;;;19.20;69.20;;;;;;5070850;28;20374;-84
2022/11/23 12:04:44;;;;;;;3.75;0.70;;;19.20;69.00;;;;;;4981792;28;20393;-81
2022/11/23 12:07:24;;;;;;;2.00;0.70;;;19.20;69.00;;;;;;4984079;28;20891;-81
2022/11/23 12:09:56;;;;;;;3.35;0.70;;;19.20;69.40;;;;;;4984324;28;21128;-81
2022/11/23 12:12:23;;;;;;;1.93;0.70;;;19.20;69.40;;;;;;4967995;28;20392;-81
2022/11/23 12:14:50;;;;;;;2.63;0.70;;;19.20;69.80;;;;;;4975573;28;20390;-81
2022/11/23 12:17:43;;;;;;;2.70;0.70;;;19.10;69.40;;;;;;4979345;28;20414;-81
2022/11/23 12:20:36;;;;;;;2.33;0.80;;;19.10;69.60;;;;;;4988544;28;20431;-80
2022/11/23 12:23:07;;;;;;;2.38;0.70;;;19.10;70.00;;;;;;4972027;28;20378;-81
2022/11/23 12:25:42;;;;;;;3.40;0.70;;;19.10;70.50;;;;;;4977733;28;20402;-81
2022/11/23 12:28:56;;;;;;;2.20;0.70;;;19.00;71.00;;;;;;4972082;28;20382;-79
2022/11/23 12:31:38;;;;;;;1.43;0.60;;;18.90;70.80;;;;;;4952034;29;20431;-82
2022/11/23 12:34:19;;;;;;;1.38;0.60;;;18.80;71.50;;;;;;4955567;28;20421;-80
2022/11/23 12:36:49;;;;;;;10.33;1.50;;;18.70;72.00;;;;;;4952847;28;20502;-80
2022/11/23 12:39:53;;;;;;;29.33;2.40;;;18.60;72.30;;;;;;4954417;28;20503;-81
2022/11/23 12:43:05;;;;;;;15.30;1.70;;;18.40;72.70;;;;;;4974319;28;20493;-80
2022/11/23 12:46:03;;;;;;;19.70;1.70;;;18.30;73.00;;;;;;4932609;29;20461;-80
2022/11/23 12:48:36;;;;;;;16.30;1.75;;;18.20;73.60;;;;;;4937860;29;20401;-80
2022/11/23 12:51:18;;;;;;;16.73;1.73;;;18.30;73.80;;;;;;4932773;29;20404;-81
2022/11/23 12:54:25;;;;;;;16.47;1.70;;;18.30;74.20;;;;;;4932711;29;20855;-80
2022/11/23 12:57:15;;;;;;;15.25;1.70;;;18.30;74.70;;;;;;4938974;29;20436;-80
2022/11/23 12:59:54;;;;;;;18.52;1.45;;;18.30;75.10;;;;;;4891537;29;20397;-80
2022/11/23 13:02:47;;;;;;;19.85;1.98;;;18.20;75.20;;;;;;4895204;29;20878;-80
2022/11/23 13:05:23;;;;;;;46.20;3.75;;;18.30;75.30;;;;;;4857433;29;21125;-80
2022/11/23 13:08:16;;;;;;;25.77;2.45;;;18.20;75.10;;;;;;4856795;29;20404;-80